地図

経路データ

SID SEASON NUMBER BASIN SUBBASIN NAME ISO_TIME NATURE LAT LON WMO_WIND WMO_PRES WMO_AGENCY TRACK_TYPE DIST2LAND LANDFALL IFLAG USA_AGENCY USA_ATCF_ID USA_LAT USA_LON USA_RECORD USA_STATUS USA_WIND USA_PRES USA_SSHS USA_R34_NE USA_R34_SE USA_R34_SW USA_R34_NW USA_R50_NE USA_R50_SE USA_R50_SW USA_R50_NW USA_R64_NE USA_R64_SE USA_R64_SW USA_R64_NW USA_POCI USA_ROCI USA_RMW USA_EYE TOKYO_LAT TOKYO_LON TOKYO_GRADE TOKYO_WIND TOKYO_PRES TOKYO_R50_DIR TOKYO_R50_LONG TOKYO_R50_SHORT TOKYO_R30_DIR TOKYO_R30_LONG TOKYO_R30_SHORT TOKYO_LAND CMA_LAT CMA_LON CMA_CAT CMA_WIND CMA_PRES HKO_LAT HKO_LON HKO_CAT HKO_WIND HKO_PRES NEWDELHI_LAT NEWDELHI_LON NEWDELHI_GRADE NEWDELHI_WIND NEWDELHI_PRES NEWDELHI_CI NEWDELHI_DP NEWDELHI_POCI REUNION_LAT REUNION_LON REUNION_TYPE REUNION_WIND REUNION_PRES REUNION_TNUM REUNION_CI REUNION_RMW REUNION_R34_NE REUNION_R34_SE REUNION_R34_SW REUNION_R34_NW REUNION_R50_NE REUNION_R50_SE REUNION_R50_SW REUNION_R50_NW REUNION_R64_NE REUNION_R64_SE REUNION_R64_SW REUNION_R64_NW BOM_LAT BOM_LON BOM_TYPE BOM_WIND BOM_PRES BOM_TNUM BOM_CI BOM_RMW BOM_R34_NE BOM_R34_SE BOM_R34_SW BOM_R34_NW BOM_R50_NE BOM_R50_SE BOM_R50_SW BOM_R50_NW BOM_R64_NE BOM_R64_SE BOM_R64_SW BOM_R64_NW BOM_ROCI BOM_POCI BOM_EYE BOM_POS_METHOD BOM_PRES_METHOD NADI_LAT NADI_LON NADI_CAT NADI_WIND NADI_PRES WELLINGTON_LAT WELLINGTON_LON WELLINGTON_WIND WELLINGTON_PRES DS824_LAT DS824_LON DS824_STAGE DS824_WIND DS824_PRES TD9636_LAT TD9636_LON TD9636_STAGE TD9636_WIND TD9636_PRES TD9635_LAT TD9635_LON TD9635_WIND TD9635_PRES TD9635_ROCI NEUMANN_LAT NEUMANN_LON NEUMANN_CLASS NEUMANN_WIND NEUMANN_PRES MLC_LAT MLC_LON MLC_CLASS MLC_WIND MLC_PRES USA_GUST BOM_GUST BOM_GUST_PER REUNION_GUST REUNION_GUST_PER USA_SEAHGT USA_SEARAD_NE USA_SEARAD_SE USA_SEARAD_SW USA_SEARAD_NW STORM_SPEED STORM_DIR
1998277N24122 1998 76 WP MM NOT_NAMED 1998-10-04 00:00:00 NR 23.8000 122.200 main 69 69 O_____________ jtwc_wp WP161998 23.8000 122.200 15 -1 1 105
1998277N24122 1998 76 WP MM NOT_NAMED 1998-10-04 03:00:00 NR 23.7900 122.250 main 78 78 P_____________ WP161998 23.7900 122.250 15 -1 1 90
1998277N24122 1998 76 WP MM NOT_NAMED 1998-10-04 06:00:00 NR 23.8000 122.300 main 78 78 O_____________ jtwc_wp WP161998 23.8000 122.300 15 -1 1 60
1998277N24122 1998 76 WP MM NOT_NAMED 1998-10-04 09:00:00 NR 23.8425 122.350 main 87 82 P_____________ WP161998 23.8425 122.350 17 -1 1 40
1998277N24122 1998 76 WP MM NOT_NAMED 1998-10-04 12:00:00 NR 23.9000 122.400 main 82 82 O_____________ jtwc_wp WP161998 23.9000 122.400 20 -1 1 38
1998277N24122 1998 76 WP MM NOT_NAMED 1998-10-04 15:00:00 NR 23.9500 122.450 main 82 82 P_____________ WP161998 23.9500 122.450 20 -1 1 40
1998277N24122 1998 76 WP MM NOT_NAMED 1998-10-04 18:00:00 NR 24.0000 122.500 main 82 75 O_____________ jtwc_wp WP161998 24.0000 122.500 20 -1 1 38
1998277N24122 1998 76 WP MM NOT_NAMED 1998-10-04 21:00:00 NR 24.0575 122.550 main 83 83 P_____________ WP161998 24.0575 122.550 22 -1 1 40
1998277N24122 1998 76 WP MM NOT_NAMED 1998-10-05 00:00:00 NR 24.1000 122.600 main 83 83 O_____________ jtwc_wp WP161998 24.1000 122.600 25 -1 1 61
1998277N24122 1998 76 WP MM NOT_NAMED 1998-10-05 03:00:00 NR 24.1075 122.650 main 92 92 P_____________ WP161998 24.1075 122.650 25 -1 1 90
1998277N24122 1998 76 WP MM NOT_NAMED 1998-10-05 06:00:00 NR 24.1000 122.700 main 92 92 O_____________ jtwc_wp WP161998 24.1000 122.700 25 -1 1 94
1998277N24122 1998 76 WP MM NOT_NAMED 1998-10-05 09:00:00 NR 24.1000 122.758 main 101 101 P_____________ WP161998 24.1000 122.758 25 -1 1 90
1998277N24122 1998 76 WP MM NOT_NAMED 1998-10-05 12:00:00 NR 24.1000 122.800 main 101 101 O_____________ jtwc_wp WP161998 24.1000 122.800 25 -1 0 112
1998277N24122 1998 76 WP MM NOT_NAMED 1998-10-05 15:00:00 NR 24.0850 122.808 main 101 101 P_____________ WP161998 24.0850 122.808 25 -1 0 0
1998277N24122 1998 76 WP MM NOT_NAMED 1998-10-05 18:00:00 NR 24.1000 122.800 main 101 97 O_____________ jtwc_wp WP161998 24.1000 122.800 25 -1 1 0
1998277N24122 1998 76 WP MM NOT_NAMED 1998-10-05 21:00:00 NR 24.1925 122.800 main 97 93 P_____________ WP161998 24.1925 122.800 25 -1 2 8
1998277N24122 1998 76 WP MM NOT_NAMED 1998-10-06 00:00:00 NR 24.3000 122.800 main 93 93 O_____________ jtwc_wp WP161998 24.3000 122.800 25 -1 2 354
1998277N24122 1998 76 WP MM NOT_NAMED 1998-10-06 03:00:00 NR 24.3500 122.800 main 91 91 P_____________ WP161998 24.3500 122.800 25 -1 1 0
1998277N24122 1998 76 WP MM NOT_NAMED 1998-10-06 06:00:00 NR 24.4000 122.800 main 91 91 O_____________ jtwc_wp WP161998 24.4000 122.800 25 -1 1 350
1998277N24122 1998 76 WP MM NOT_NAMED 1998-10-06 09:00:00 NR 24.4850 122.793 main 91 91 P_____________ WP161998 24.4850 122.793 27 -1 2 8
1998277N24122 1998 76 WP MM NOT_NAMED 1998-10-06 12:00:00 NR 24.6000 122.800 main 91 87 O_____________ jtwc_wp WP161998 24.6000 122.800 30 -1 3 9
1998277N24122 1998 76 WP MM NOT_NAMED 1998-10-06 15:00:00 NR 24.7500 122.828 main 87 83 P_____________ WP161998 24.7500 122.828 30 -1 3 16
1998277N24122 1998 76 WP MM NOT_NAMED 1998-10-06 18:00:00 NR 24.9000 122.900 main 91 90 O_____________ jtwc_wp WP161998 24.9000 122.900 30 -1 3 34
1998277N24122 1998 76 WP MM NOT_NAMED 1998-10-06 21:00:00 NR 25.0075 123.020 main 100 100 P_____________ WP161998 25.0075 123.020 30 -1 3 54
1998277N24122 1998 76 WP MM NOT_NAMED 1998-10-07 00:00:00 NR 25.1000 123.200 main 121 121 O_____________ jtwc_wp WP161998 25.1000 123.200 30 -1 4 62
1998277N24122 1998 76 WP MM NOT_NAMED 1998-10-07 03:00:00 NR 25.2075 123.435 main 142 142 P_____________ WP161998 25.2075 123.435 30 -1 5 66
1998277N24122 1998 76 WP MM NOT_NAMED 1998-10-07 06:00:00 NR 25.3000 123.700 main 174 174 O_____________ jtwc_wp WP161998 25.3000 123.700 30 -1 5 71
1998277N24122 1998 76 WP MM NOT_NAMED 1998-10-07 09:00:00 NR 25.3650 123.950 main 205 205 P_____________ WP161998 25.3650 123.950 30 -1 5 77
1998277N24122 1998 76 WP MM NOT_NAMED 1998-10-07 12:00:00 NR 25.4000 124.200 main 225 225 O_____________ jtwc_wp WP161998 25.4000 124.200 30 -1 5 85
1998277N24122 1998 76 WP MM NOT_NAMED 1998-10-07 15:00:00 NR 25.4076 124.450 main 255 255 P_____________ WP161998 25.4076 124.450 27 -1 5 90
1998277N24122 1998 76 WP MM NOT_NAMED 1998-10-07 18:00:00 NR 25.4000 124.700 main 275 O_____________ jtwc_wp WP161998 25.4000 124.700 25 -1 5 92

デジタル台風データ・検索

IBTrACS Databaseについて

本データベースは、米国NOAAが公開する1842年以降の世界の熱帯低気圧のベストトラックデータアーカイブInternational Best Track Archive for Climate Stewardship (IBTrACS)を、ウェブで閲覧しやすい形式に変換したものです。

最終更新日:2021-12-01